Wetterdaten: Woche 27.02.17 - 05.03.17 (KW9)
Datum Zeit Temp. A. Feuchte A. Luftdruck Regen Wind Richtung Sonnenschein ET UV Solar Taupunkt Windchill Windben Empfang
27.02.2017 00:00 0,6 C 93 % 1016,0 hPa 0,0 l/m 0,3 km/h (0 Bft) O 0,00 h 0,000 mm 0,0 UV-I 0 W/m -0,4 C 0,6 C 1,2 km/h (1 Bft) 97,95 %
27.02.2017 01:00 0,3 C 94 % 1016,0 hPa 0,0 l/m 0,5 km/h (0 Bft) O 0,00 h 0,000 mm 0,0 UV-I 0 W/m -0,6 C 0,3 C 1,5 km/h (1 Bft) 96,23 %
27.02.2017 02:00 -0,2 C 94 % 1015,5 hPa 0,0 l/m 0,7 km/h (0 Bft) O 0,00 h 0,000 mm 0,0 UV-I 0 W/m -1,0 C -0,2 C 1,4 km/h (1 Bft) 97,41 %
27.02.2017 03:00 -0,5 C 95 % 1015,1 hPa 0,0 l/m 0,5 km/h (0 Bft) O 0,00 h 0,000 mm 0,0 UV-I 0 W/m -1,2 C -0,5 C 1,0 km/h (0 Bft) 97,01 %
27.02.2017 04:00 -0,8 C 96 % 1014,7 hPa 0,0 l/m 0,6 km/h (0 Bft) O-SO 0,00 h 0,000 mm 0,0 UV-I 0 W/m -1,4 C -0,8 C 0,9 km/h (0 Bft) 97,66 %
27.02.2017 05:00 -1,0 C 96 % 1014,4 hPa 0,0 l/m 0,9 km/h (0 Bft) O-SO 0,00 h 0,000 mm 0,0 UV-I 0 W/m -1,5 C -1,0 C 1,7 km/h (1 Bft) 96,91 %
27.02.2017 06:00 -1,3 C 96 % 1014,0 hPa 0,0 l/m 1,3 km/h (1 Bft) O-SO 0,00 h 0,000 mm 0,0 UV-I 7 W/m -1,9 C -1,3 C 2,3 km/h (1 Bft) 97,03 %
27.02.2017 07:00 -0,6 C 96 % 1013,7 hPa 0,2 l/m 0,5 km/h (0 Bft) O-SO 0,70 h 0,000 mm 0,0 UV-I 69 W/m -1,1 C -0,6 C 1,3 km/h (1 Bft) 95,97 %
27.02.2017 08:00 0,4 C 96 % 1013,1 hPa 0,0 l/m 1,6 km/h (1 Bft) O 0,17 h 0,025 mm 0,2 UV-I 106 W/m -0,2 C 0,4 C 2,6 km/h (1 Bft) 96,09 %
27.02.2017 09:00 1,9 C 94 % 1012,1 hPa 0,0 l/m 1,9 km/h (1 Bft) NO 0,63 h 0,051 mm 0,7 UV-I 249 W/m 1,0 C 1,9 C 3,8 km/h (1 Bft) 94,62 %
27.02.2017 10:00 4,6 C 82 % 1010,9 hPa 0,0 l/m 5,3 km/h (1 Bft) O-NO 0,93 h 0,102 mm 1,3 UV-I 467 W/m 1,7 C 4,4 C 8,0 km/h (2 Bft) 94,89 %
27.02.2017 11:00 7,3 C 72 % 1009,7 hPa 0,0 l/m 3,9 km/h (1 Bft) N-NO 0,97 h 0,203 mm 1,7 UV-I 506 W/m 2,7 C 7,2 C 7,6 km/h (2 Bft) 94,44 %
27.02.2017 12:00 9,3 C 63 % 1008,2 hPa 0,0 l/m 5,1 km/h (1 Bft) O-NO 1,00 h 0,229 mm 1,9 UV-I 595 W/m 2,6 C 8,7 C 9,2 km/h (2 Bft) 98,51 %
27.02.2017 13:00 10,5 C 55 % 1007,1 hPa 0,0 l/m 4,4 km/h (1 Bft) NO 0,90 h 0,279 mm 1,7 UV-I 521 W/m 1,9 C 10,1 C 7,8 km/h (2 Bft) 94,87 %
27.02.2017 14:00 11,2 C 55 % 1006,1 hPa 0,0 l/m 1,6 km/h (1 Bft) NO 0,90 h 0,254 mm 1,2 UV-I 447 W/m 2,5 C 11,2 C 3,7 km/h (1 Bft) 96,52 %
27.02.2017 15:00 11,4 C 55 % 1005,4 hPa 0,0 l/m 1,5 km/h (1 Bft) S-SW 0,83 h 0,229 mm 0,7 UV-I 287 W/m 2,5 C 11,4 C 3,5 km/h (1 Bft) 96,66 %
27.02.2017 16:00 11,0 C 59 % 1005,0 hPa 0,0 l/m 3,7 km/h (1 Bft) SO 0,87 h 0,152 mm 0,0 UV-I 152 W/m 3,4 C 11,0 C 6,1 km/h (2 Bft) 98,96 %
27.02.2017 17:00 9,5 C 66 % 1004,5 hPa 0,0 l/m 4,5 km/h (1 Bft) SO 0,60 h 0,102 mm 0,0 UV-I 37 W/m 3,4 C 9,3 C 6,9 km/h (2 Bft) 95,27 %
27.02.2017 18:00 8,2 C 69 % 1004,0 hPa 0,0 l/m 7,7 km/h (2 Bft) O 0,00 h 0,025 mm 0,0 UV-I 0 W/m 2,8 C 7,2 C 12,1 km/h (2 Bft) 98,12 %
27.02.2017 19:00 6,9 C 74 % 1003,6 hPa 0,0 l/m 6,5 km/h (2 Bft) O 0,00 h 0,025 mm 0,0 UV-I 0 W/m 2,6 C 6,5 C 10,7 km/h (2 Bft) 98,09 %
27.02.2017 20:00 5,1 C 80 % 1003,1 hPa 0,0 l/m 3,6 km/h (1 Bft) O-NO 0,00 h 0,026 mm 0,0 UV-I 0 W/m 2,0 C 5,1 C 6,5 km/h (2 Bft) 97,71 %
27.02.2017 21:00 5,2 C 81 % 1002,4 hPa 0,0 l/m 5,7 km/h (1 Bft) O-NO 0,00 h 0,000 mm 0,0 UV-I 0 W/m 2,3 C 4,9 C 8,2 km/h (2 Bft) 95,87 %
27.02.2017 22:00 4,0 C 85 % 1001,8 hPa 0,0 l/m 4,2 km/h (1 Bft) O-NO 0,00 h 0,025 mm 0,0 UV-I 0 W/m 1,7 C 4,0 C 5,9 km/h (2 Bft) 96,37 %
27.02.2017 23:00 2,9 C 88 % 1001,4 hPa 0,0 l/m 2,5 km/h (1 Bft) O 0,00 h 0,000 mm 0,0 UV-I 0 W/m 1,1 C 2,9 C 4,2 km/h (1 Bft) 97,09 %
28.02.2017 00:00 1,1 C 92 % 1000,8 hPa 0,0 l/m 2,0 km/h (1 Bft) O 0,00 h 0,000 mm 0,0 UV-I 0 W/m -0,0 C 1,1 C 3,3 km/h (1 Bft) 96,06 %
28.02.2017 01:00 0,3 C 94 % 1000,3 hPa 0,0 l/m 1,7 km/h (1 Bft) S 0,00 h 0,000 mm 0,0 UV-I 0 W/m -0,5 C 0,3 C 3,4 km/h (1 Bft) 96,29 %
28.02.2017 02:00 0,1 C 95 % 1000,1 hPa 0,0 l/m 3,3 km/h (1 Bft) S 0,00 h 0,000 mm 0,0 UV-I 0 W/m -0,6 C 0,1 C 5,2 km/h (1 Bft) 97,13 %
28.02.2017 03:00 0,3 C 95 % 999,2 hPa 0,0 l/m 2,8 km/h (1 Bft) S 0,00 h 0,000 mm 0,0 UV-I 0 W/m -0,5 C 0,3 C 4,6 km/h (1 Bft) 96,76 %
28.02.2017 04:00 0,5 C 95 % 998,4 hPa 0,0 l/m 1,6 km/h (1 Bft) S 0,00 h 0,000 mm 0,0 UV-I 0 W/m -0,2 C 0,5 C 3,5 km/h (1 Bft) 96,77 %
28.02.2017 05:00 -0,1 C 95 % 997,9 hPa 0,0 l/m 1,1 km/h (1 Bft) S 0,00 h 0,000 mm 0,0 UV-I 0 W/m -0,8 C -0,1 C 2,1 km/h (1 Bft) 95,92 %
28.02.2017 06:00 -0,9 C 96 % 997,5 hPa 0,0 l/m 1,3 km/h (1 Bft) O-SO 0,03 h 0,000 mm 0,0 UV-I 7 W/m -1,5 C -0,9 C 2,7 km/h (1 Bft) 96,37 %
28.02.2017 07:00 -0,6 C 96 % 998,0 hPa 0,0 l/m 0,4 km/h (0 Bft) O-NO 0,60 h 0,000 mm 0,0 UV-I 65 W/m -1,1 C -0,6 C 1,3 km/h (1 Bft) 94,26 %
28.02.2017 08:00 1,6 C 94 % 1000,8 hPa 0,2 l/m 12,0 km/h (2 Bft) W-SW 0,20 h 0,025 mm 0,0 UV-I 123 W/m 0,7 C -2,9 C 18,6 km/h (3 Bft) 95,47 %
28.02.2017 09:00 4,9 C 83 % 1003,5 hPa 0,0 l/m 22,3 km/h (4 Bft) W-SW 0,00 h 0,051 mm 0,3 UV-I 114 W/m 2,4 C -4,1 C 34,3 km/h (5 Bft) 94,59 %
28.02.2017 10:00 5,7 C 80 % 1004,4 hPa 0,0 l/m 14,4 km/h (3 Bft) W-SW 0,00 h 0,076 mm 0,0 UV-I 88 W/m 2,5 C 0,4 C 22,1 km/h (4 Bft) 97,08 %
28.02.2017 11:00 6,2 C 79 % 1004,1 hPa 0,0 l/m 10,0 km/h (2 Bft) SW 0,00 h 0,051 mm 0,8 UV-I 180 W/m 2,8 C 3,4 C 16,3 km/h (3 Bft) 95,83 %
28.02.2017 12:00 6,5 C 78 % 1003,4 hPa 0,0 l/m 6,6 km/h (2 Bft) SW 0,00 h 0,102 mm 0,6 UV-I 174 W/m 2,9 C 5,9 C 11,0 km/h (2 Bft) 96,80 %
28.02.2017 13:00 6,4 C 76 % 1002,5 hPa 0,0 l/m 2,9 km/h (1 Bft) S-SW 0,00 h 0,076 mm 0,5 UV-I 123 W/m 2,5 C 6,4 C 5,4 km/h (1 Bft) 96,19 %
28.02.2017 14:00 6,6 C 74 % 1001,4 hPa 0,0 l/m 6,7 km/h (2 Bft) O-NO 0,00 h 0,051 mm 0,5 UV-I 146 W/m 2,3 C 5,5 C 10,0 km/h (2 Bft) 96,49 %
28.02.2017 15:00 6,7 C 75 % 999,9 hPa 0,0 l/m 15,4 km/h (3 Bft) O-NO 0,00 h 0,076 mm 0,0 UV-I 123 W/m 2,6 C 1,0 C 21,1 km/h (4 Bft) 96,59 %
28.02.2017 16:00 6,3 C 77 % 998,6 hPa 0,0 l/m 15,1 km/h (3 Bft) O-NO 0,00 h 0,076 mm 0,0 UV-I 52 W/m 2,6 C 0,6 C 20,5 km/h (4 Bft) 98,00 %
28.02.2017 17:00 5,6 C 81 % 997,4 hPa 0,0 l/m 11,4 km/h (2 Bft) NO 0,03 h 0,051 mm 0,0 UV-I 12 W/m 2,6 C 1,9 C 16,7 km/h (3 Bft) 95,52 %
28.02.2017 18:00 5,1 C 83 % 996,4 hPa 0,0 l/m 9,3 km/h (2 Bft) O-NO 0,00 h 0,025 mm 0,0 UV-I 0 W/m 2,5 C 2,8 C 14,0 km/h (3 Bft) 98,13 %
28.02.2017 19:00 4,4 C 86 % 995,7 hPa 0,0 l/m 2,1 km/h (1 Bft) N-NO 0,00 h 0,026 mm 0,0 UV-I 0 W/m 2,2 C 4,3 C 4,4 km/h (1 Bft) 95,13 %
28.02.2017 20:00 4,6 C 88 % 998,9 hPa 1,4 l/m 9,3 km/h (2 Bft) W 0,00 h 0,000 mm 0,0 UV-I 0 W/m 2,8 C 1,8 C 19,8 km/h (4 Bft) 97,75 %
28.02.2017 21:00 3,8 C 93 % 1001,4 hPa 1,8 l/m 14,8 km/h (3 Bft) W 0,00 h 0,000 mm 0,0 UV-I 0 W/m 2,8 C -2,1 C 24,2 km/h (4 Bft) 97,81 %
28.02.2017 22:00 3,3 C 92 % 1001,9 hPa 0,0 l/m 17,6 km/h (3 Bft) S-SW 0,00 h 0,000 mm 0,0 UV-I 0 W/m 2,1 C -4,1 C 27,8 km/h (4 Bft) 97,72 %
28.02.2017 23:00 4,2 C 88 % 1002,3 hPa 0,0 l/m 18,1 km/h (3 Bft) SW 0,00 h 0,025 mm 0,0 UV-I 0 W/m 2,3 C -3,4 C 29,4 km/h (5 Bft) 98,16 %
01.03.2017 00:00 4,5 C 85 % 1002,4 hPa 0,0 l/m 14,9 km/h (3 Bft) S-SW 0,00 h 0,000 mm 0,0 UV-I 0 W/m 2,2 C -1,2 C 23,3 km/h (4 Bft) 98,00 %
01.03.2017 01:00 4,7 C 83 % 1002,6 hPa 0,0 l/m 15,3 km/h (3 Bft) SW 0,00 h 0,025 mm 0,0 UV-I 0 W/m 2,1 C -1,4 C 24,4 km/h (4 Bft) 98,66 %
01.03.2017 02:00 4,8 C 82 % 1002,5 hPa 0,0 l/m 18,6 km/h (3 Bft) W-SW 0,00 h 0,026 mm 0,0 UV-I 0 W/m 1,9 C -2,6 C 29,1 km/h (5 Bft) 96,93 %
01.03.2017 03:00 3,8 C 85 % 1003,9 hPa 0,6 l/m 21,7 km/h (4 Bft) W-SW 0,00 h 0,025 mm 0,0 UV-I 0 W/m 1,5 C -5,0 C 33,9 km/h (5 Bft) 98,46 %
01.03.2017 04:00 3,8 C 85 % 1004,6 hPa 0,0 l/m 16,3 km/h (3 Bft) W-SW 0,00 h 0,026 mm 0,0 UV-I 0 W/m 1,5 C -3,0 C 23,8 km/h (4 Bft) 97,10 %
01.03.2017 05:00 3,6 C 85 % 1005,0 hPa 0,0 l/m 11,8 km/h (2 Bft) SW 0,00 h 0,025 mm 0,0 UV-I 0 W/m 1,3 C -0,7 C 18,0 km/h (3 Bft) 97,82 %
01.03.2017 06:00 3,1 C 86 % 1005,1 hPa 0,0 l/m 14,1 km/h (3 Bft) SW 0,00 h 0,025 mm 0,0 UV-I 6 W/m 1,0 C -2,6 C 20,9 km/h (4 Bft) 97,01 %
01.03.2017 07:00 3,4 C 83 % 1006,1 hPa 0,0 l/m 15,5 km/h (3 Bft) SW 0,00 h 0,026 mm 0,0 UV-I 21 W/m 0,8 C -3,1 C 23,5 km/h (4 Bft) 96,25 %
01.03.2017 08:00 4,2 C 77 % 1006,7 hPa 0,0 l/m 14,4 km/h (3 Bft) SW 0,00 h 0,025 mm 0,0 UV-I 98 W/m 0,5 C -1,4 C 21,9 km/h (4 Bft) 97,32 %
01.03.2017 09:00 5,5 C 70 % 1007,1 hPa 0,0 l/m 18,5 km/h (3 Bft) SW 0,77 h 0,076 mm 0,6 UV-I 260 W/m 0,5 C -1,8 C 28,2 km/h (4 Bft) 96,41 %
01.03.2017 10:00 6,8 C 64 % 1007,7 hPa 0,0 l/m 22,8 km/h (4 Bft) W-SW 0,57 h 0,153 mm 0,8 UV-I 318 W/m 0,5 C -1,8 C 34,9 km/h (5 Bft) 97,19 %
01.03.2017 11:00 7,1 C 62 % 1008,1 hPa 0,0 l/m 21,2 km/h (4 Bft) W-SW 0,00 h 0,203 mm 0,7 UV-I 207 W/m 0,4 C -0,8 C 32,2 km/h (5 Bft) 97,44 %
01.03.2017 12:00 8,1 C 61 % 1008,0 hPa 0,0 l/m 22,5 km/h (4 Bft) W-SW 0,63 h 0,152 mm 1,2 UV-I 415 W/m 0,9 C 0,1 C 35,0 km/h (5 Bft) 95,13 %
01.03.2017 13:00 8,1 C 61 % 1008,1 hPa 0,0 l/m 23,3 km/h (4 Bft) W 0,27 h 0,280 mm 0,9 UV-I 236 W/m 1,1 C -0,1 C 37,0 km/h (5 Bft) 98,60 %
01.03.2017 14:00 8,4 C 59 % 1008,4 hPa 0,0 l/m 21,3 km/h (4 Bft) W-SW 0,40 h 0,203 mm 0,7 UV-I 228 W/m 0,9 C 0,8 C 32,1 km/h (5 Bft) 96,96 %
01.03.2017 15:00 8,7 C 57 % 1008,8 hPa 0,0 l/m 17,0 km/h (3 Bft) W 0,47 h 0,203 mm 0,3 UV-I 249 W/m 0,6 C 2,8 C 27,3 km/h (4 Bft) 98,12 %
01.03.2017 16:00 8,8 C 55 % 1008,8 hPa 0,0 l/m 16,7 km/h (3 Bft) W 0,53 h 0,178 mm 0,0 UV-I 135 W/m 0,2 C 3,1 C 26,5 km/h (4 Bft) 96,28 %
01.03.2017 17:00 7,7 C 61 % 1009,1 hPa 0,0 l/m 8,0 km/h (2 Bft) SW 0,03 h 0,127 mm 0,0 UV-I 14 W/m 0,6 C 6,2 C 11,5 km/h (2 Bft) 96,06 %
01.03.2017 18:00 6,9 C 67 % 1009,5 hPa 0,0 l/m 3,2 km/h (1 Bft) S-SW 0,00 h 0,051 mm 0,0 UV-I 0 W/m 1,1 C 6,9 C 5,4 km/h (1 Bft) 95,38 %
01.03.2017 19:00 6,6 C 68 % 1009,7 hPa 0,0 l/m 3,5 km/h (1 Bft) S-SW 0,00 h 0,025 mm 0,0 UV-I 0 W/m 1,0 C 6,6 C 6,4 km/h (2 Bft) 95,52 %
01.03.2017 20:00 6,2 C 69 % 1009,8 hPa 0,0 l/m 4,1 km/h (1 Bft) S-SW 0,00 h 0,026 mm 0,0 UV-I 0 W/m 0,8 C 6,2 C 6,6 km/h (2 Bft) 96,10 %
01.03.2017 21:00 5,8 C 68 % 1009,8 hPa 0,0 l/m 6,3 km/h (2 Bft) S-SW 0,00 h 0,025 mm 0,0 UV-I 0 W/m 0,3 C 4,8 C 10,1 km/h (2 Bft) 97,40 %
01.03.2017 22:00 4,5 C 73 % 1009,3 hPa 0,0 l/m 2,1 km/h (1 Bft) S-SO 0,00 h 0,025 mm 0,0 UV-I 0 W/m 0,1 C 4,5 C 5,2 km/h (1 Bft) 97,10 %
01.03.2017 23:00 4,4 C 75 % 1008,7 hPa 0,0 l/m 2,0 km/h (1 Bft) SO 0,00 h 0,000 mm 0,0 UV-I 0 W/m 0,4 C 4,4 C 3,9 km/h (1 Bft) 96,07 %
02.03.2017 00:00 4,1 C 80 % 1008,4 hPa 0,0 l/m 1,3 km/h (1 Bft) W 0,00 h 0,000 mm 0,0 UV-I 0 W/m 0,9 C 4,1 C 3,2 km/h (1 Bft) 94,00 %
02.03.2017 01:00 3,8 C 85 % 1008,2 hPa 0,0 l/m 1,1 km/h (1 Bft) S-SO 0,00 h 0,000 mm 0,0 UV-I 0 W/m 1,5 C 3,8 C 3,2 km/h (1 Bft) 97,41 %
02.03.2017 02:00 3,4 C 91 % 1008,4 hPa 1,4 l/m 1,1 km/h (1 Bft) S 0,00 h 0,000 mm 0,0 UV-I 0 W/m 2,1 C 3,4 C 2,6 km/h (1 Bft) 96,29 %
02.03.2017 03:00 3,1 C 95 % 1008,5 hPa 2,4 l/m 1,3 km/h (1 Bft) S 0,00 h 0,000 mm 0,0 UV-I 0 W/m 2,4 C 3,1 C 2,5 km/h (1 Bft) 97,27 %
02.03.2017 04:00 3,2 C 95 % 1008,2 hPa 2,0 l/m 5,5 km/h (1 Bft) S-SO 0,00 h 0,000 mm 0,0 UV-I 0 W/m 2,5 C 3,0 C 10,4 km/h (2 Bft) 97,83 %
02.03.2017 05:00 3,8 C 95 % 1008,2 hPa 1,8 l/m 3,4 km/h (1 Bft) S 0,00 h 0,000 mm 0,0 UV-I 0 W/m 3,0 C 3,5 C 7,3 km/h (2 Bft) 95,94 %
02.03.2017 06:00 4,3 C 96 % 1008,5 hPa 1,4 l/m 4,3 km/h (1 Bft) S 0,00 h 0,000 mm 0,0 UV-I 5 W/m 3,7 C 4,0 C 6,7 km/h (2 Bft) 97,93 %
02.03.2017 07:00 5,6 C 95 % 1008,8 hPa 0,6 l/m 10,3 km/h (2 Bft) SW 0,00 h 0,000 mm 0,0 UV-I 18 W/m 4,9 C 2,7 C 16,1 km/h (3 Bft) 95,47 %
02.03.2017 08:00 6,9 C 93 % 1009,3 hPa 0,2 l/m 10,9 km/h (2 Bft) W-SW 0,00 h 0,000 mm 0,0 UV-I 62 W/m 5,9 C 3,9 C 16,4 km/h (3 Bft) 98,60 %
02.03.2017 09:00 8,2 C 90 % 1009,7 hPa 0,2 l/m 17,8 km/h (3 Bft) W-SW 0,37 h 0,025 mm 0,8 UV-I 260 W/m 6,7 C 1,9 C 27,2 km/h (4 Bft) 96,52 %
02.03.2017 10:00 9,7 C 83 % 1010,1 hPa 0,0 l/m 21,5 km/h (4 Bft) SW 0,40 h 0,127 mm 0,8 UV-I 218 W/m 7,0 C 2,5 C 33,6 km/h (5 Bft) 97,36 %
02.03.2017 11:00 8,9 C 80 % 1011,3 hPa 0,0 l/m 21,8 km/h (4 Bft) W-SW 0,30 h 0,127 mm 1,1 UV-I 276 W/m 5,5 C 1,3 C 34,8 km/h (5 Bft) 96,13 %
02.03.2017 12:00 9,3 C 66 % 1012,4 hPa 0,0 l/m 25,1 km/h (4 Bft) W-SW 0,72 h 0,178 mm 1,4 UV-I 341 W/m 3,4 C 1,0 C 39,5 km/h (6 Bft) 96,87 %
02.03.2017 13:00 9,5 C 67 % 1012,9 hPa 0,0 l/m 21,4 km/h (4 Bft) W-SW 0,70 h 0,229 mm 1,4 UV-I 447 W/m 3,7 C 2,3 C 33,4 km/h (5 Bft) 96,34 %
02.03.2017 14:00 10,2 C 61 % 1013,3 hPa 0,2 l/m 21,3 km/h (4 Bft) W-SW 0,90 h 0,279 mm 1,2 UV-I 431 W/m 3,0 C 3,3 C 33,4 km/h (5 Bft) 95,89 %
02.03.2017 15:00 10,1 C 58 % 1013,7 hPa 0,0 l/m 20,8 km/h (4 Bft) SW 1,00 h 0,280 mm 0,6 UV-I 311 W/m 2,1 C 3,2 C 31,8 km/h (5 Bft) 97,23 %
02.03.2017 16:00 9,5 C 61 % 1014,0 hPa 0,0 l/m 18,3 km/h (3 Bft) W-SW 0,53 h 0,228 mm 0,0 UV-I 123 W/m 2,4 C 3,3 C 28,8 km/h (4 Bft) 94,77 %
02.03.2017 17:00 9,2 C 59 % 1014,5 hPa 0,0 l/m 17,2 km/h (3 Bft) W-SW 0,53 h 0,127 mm 0,0 UV-I 35 W/m 1,5 C 3,2 C 25,9 km/h (4 Bft) 95,58 %
02.03.2017 18:00 8,4 C 56 % 1015,5 hPa 0,0 l/m 16,6 km/h (3 Bft) W-SW 0,00 h 0,102 mm 0,0 UV-I 0 W/m 0,2 C 2,5 C 24,8 km/h (4 Bft) 96,19 %
02.03.2017 19:00 8,3 C 54 % 1016,5 hPa 0,0 l/m 20,1 km/h (4 Bft) W-SW 0,00 h 0,076 mm 0,0 UV-I 0 W/m -0,4 C 1,2 C 29,9 km/h (5 Bft) 97,99 %
02.03.2017 20:00 7,7 C 57 % 1017,2 hPa 0,0 l/m 14,2 km/h (3 Bft) W-SW 0,00 h 0,102 mm 0,0 UV-I 0 W/m -0,2 C 2,9 C 20,6 km/h (4 Bft) 97,53 %
02.03.2017 21:00 6,5 C 64 % 1017,9 hPa 0,0 l/m 9,9 km/h (2 Bft) SW 0,00 h 0,050 mm 0,0 UV-I 0 W/m 0,1 C 3,8 C 14,3 km/h (3 Bft) 97,82 %
02.03.2017 22:00 5,5 C 69 % 1018,4 hPa 0,0 l/m 9,0 km/h (2 Bft) SW 0,00 h 0,026 mm 0,0 UV-I 0 W/m 0,2 C 3,4 C 13,0 km/h (3 Bft) 96,45 %
02.03.2017 23:00 5,1 C 67 % 1019,1 hPa 0,0 l/m 7,1 km/h (2 Bft) SW 0,00 h 0,025 mm 0,0 UV-I 0 W/m -0,5 C 4,4 C 10,7 km/h (2 Bft) 95,20 %
03.03.2017 00:00 4,1 C 67 % 1019,3 hPa 0,0 l/m 8,4 km/h (2 Bft) SW 0,00 h 0,000 mm 0,0 UV-I 0 W/m -1,5 C 2,3 C 12,7 km/h (3 Bft) 98,24 %
03.03.2017 01:00 3,9 C 66 % 1019,3 hPa 0,0 l/m 11,2 km/h (2 Bft) S-SW 0,00 h 0,025 mm 0,0 UV-I 0 W/m -1,8 C 0,1 C 16,8 km/h (3 Bft) 95,56 %
03.03.2017 02:00 3,8 C 65 % 1019,3 hPa 0,0 l/m 6,2 km/h (2 Bft) S-SW 0,00 h 0,026 mm 0,0 UV-I 0 W/m -2,3 C 3,1 C 9,4 km/h (2 Bft) 97,90 %
03.03.2017 03:00 2,0 C 72 % 1019,2 hPa 0,0 l/m 4,0 km/h (1 Bft) S-SW 0,00 h 0,025 mm 0,0 UV-I 0 W/m -2,5 C 2,0 C 5,4 km/h (1 Bft) 96,04 %
03.03.2017 04:00 1,4 C 76 % 1019,1 hPa 0,0 l/m 3,6 km/h (1 Bft) S-SW 0,00 h 0,026 mm 0,0 UV-I 0 W/m -2,4 C 1,4 C 5,7 km/h (1 Bft) 97,28 %
03.03.2017 05:00 1,1 C 78 % 1019,1 hPa 0,0 l/m 2,2 km/h (1 Bft) S-SW 0,00 h 0,000 mm 0,0 UV-I 0 W/m -2,3 C 1,1 C 3,9 km/h (1 Bft) 96,22 %
03.03.2017 06:00 0,5 C 84 % 1018,5 hPa 0,0 l/m 2,1 km/h (1 Bft) O-NO 0,10 h 0,000 mm 0,0 UV-I 12 W/m -2,0 C 0,5 C 3,4 km/h (1 Bft) 94,98 %
03.03.2017 07:00 0,9 C 82 % 1018,1 hPa 0,0 l/m 5,5 km/h (1 Bft) O-NO 0,23 h 0,000 mm 0,0 UV-I 68 W/m -1,8 C 0,8 C 7,6 km/h (2 Bft) 97,37 %
03.03.2017 08:00 2,7 C 75 % 1017,5 hPa 0,0 l/m 9,2 km/h (2 Bft) O-NO 0,77 h 0,025 mm 0,5 UV-I 218 W/m -1,3 C 0,3 C 13,6 km/h (3 Bft) 96,54 %
03.03.2017 09:00 4,3 C 71 % 1016,8 hPa 0,0 l/m 13,1 km/h (3 Bft) O-NO 0,97 h 0,102 mm 0,9 UV-I 367 W/m -0,4 C -0,5 C 18,4 km/h (3 Bft) 95,81 %
03.03.2017 10:00 6,3 C 67 % 1015,7 hPa 0,0 l/m 18,0 km/h (3 Bft) O-NO 1,00 h 0,177 mm 1,4 UV-I 516 W/m 0,6 C -0,6 C 24,7 km/h (4 Bft) 95,03 %
03.03.2017 11:00 8,1 C 63 % 1014,4 hPa 0,0 l/m 18,8 km/h (3 Bft) NO 1,00 h 0,280 mm 1,7 UV-I 525 W/m 1,4 C 1,3 C 26,7 km/h (4 Bft) 95,83 %
03.03.2017 12:00 9,3 C 57 % 1013,3 hPa 0,0 l/m 18,3 km/h (3 Bft) NO 1,00 h 0,305 mm 1,6 UV-I 443 W/m 1,3 C 3,1 C 24,7 km/h (4 Bft) 97,46 %
03.03.2017 13:00 10,4 C 56 % 1012,1 hPa 0,0 l/m 14,1 km/h (3 Bft) NO 1,00 h 0,279 mm 1,4 UV-I 384 W/m 2,0 C 6,1 C 20,0 km/h (4 Bft) 97,06 %
03.03.2017 14:00 11,2 C 56 % 1011,3 hPa 0,0 l/m 10,6 km/h (2 Bft) O-NO 1,00 h 0,254 mm 1,0 UV-I 336 W/m 2,8 C 8,7 C 15,3 km/h (3 Bft) 95,56 %
03.03.2017 15:00 11,9 C 55 % 1010,6 hPa 0,0 l/m 9,0 km/h (2 Bft) O-NO 1,00 h 0,203 mm 0,6 UV-I 291 W/m 3,3 C 10,3 C 13,8 km/h (3 Bft) 94,54 %
03.03.2017 16:00 11,8 C 57 % 1009,8 hPa 0,0 l/m 9,5 km/h (2 Bft) O-NO 0,98 h 0,178 mm 0,0 UV-I 155 W/m 3,6 C 9,9 C 14,1 km/h (3 Bft) 97,56 %
03.03.2017 17:00 10,3 C 62 % 1009,1 hPa 0,0 l/m 5,2 km/h (1 Bft) O-NO 0,28 h 0,127 mm 0,0 UV-I 29 W/m 3,4 C 10,3 C 7,5 km/h (2 Bft) 97,06 %
03.03.2017 18:00 9,1 C 64 % 1008,6 hPa 0,0 l/m 7,3 km/h (2 Bft) O 0,00 h 0,051 mm 0,0 UV-I 0 W/m 2,7 C 8,2 C 11,1 km/h (2 Bft) 96,54 %
03.03.2017 19:00 8,7 C 64 % 1008,0 hPa 0,0 l/m 7,1 km/h (2 Bft) O-NO 0,00 h 0,025 mm 0,0 UV-I 0 W/m 2,3 C 8,0 C 11,4 km/h (2 Bft) 95,95 %
03.03.2017 20:00 7,9 C 68 % 1007,2 hPa 0,0 l/m 7,9 km/h (2 Bft) O-NO 0,00 h 0,026 mm 0,0 UV-I 0 W/m 2,2 C 6,2 C 11,6 km/h (2 Bft) 95,05 %
03.03.2017 21:00 5,9 C 76 % 1007,1 hPa 0,0 l/m 2,4 km/h (1 Bft) O-NO 0,00 h 0,025 mm 0,0 UV-I 0 W/m 2,0 C 5,9 C 3,8 km/h (1 Bft) 95,19 %
03.03.2017 22:00 5,1 C 79 % 1006,5 hPa 0,0 l/m 1,8 km/h (1 Bft) O-NO 0,00 h 0,000 mm 0,0 UV-I 0 W/m 1,8 C 5,1 C 3,3 km/h (1 Bft) 98,27 %
03.03.2017 23:00 4,4 C 82 % 1006,0 hPa 0,0 l/m 2,4 km/h (1 Bft) NO 0,00 h 0,000 mm 0,0 UV-I 0 W/m 1,5 C 4,4 C 3,7 km/h (1 Bft) 97,14 %
04.03.2017 00:00 4,8 C 78 % 1005,4 hPa 0,0 l/m 3,5 km/h (1 Bft) O-NO 0,00 h 0,000 mm 0,0 UV-I 0 W/m 1,3 C 4,8 C 5,3 km/h (1 Bft) 95,88 %
04.03.2017 01:00 4,9 C 77 % 1004,7 hPa 0,0 l/m 5,8 km/h (2 Bft) O-NO 0,00 h 0,000 mm 0,0 UV-I 0 W/m 1,2 C 4,2 C 9,2 km/h (2 Bft) 98,72 %
04.03.2017 02:00 4,5 C 78 % 1003,8 hPa 0,0 l/m 4,4 km/h (1 Bft) O-NO 0,00 h 0,025 mm 0,0 UV-I 0 W/m 1,1 C 4,5 C 6,3 km/h (2 Bft) 96,90 %
04.03.2017 03:00 3,7 C 82 % 1003,2 hPa 0,0 l/m 3,1 km/h (1 Bft) NO 0,00 h 0,000 mm 0,0 UV-I 0 W/m 0,8 C 3,7 C 4,5 km/h (1 Bft) 97,47 %
04.03.2017 04:00 2,8 C 85 % 1002,7 hPa 0,0 l/m 2,2 km/h (1 Bft) NO 0,00 h 0,000 mm 0,0 UV-I 0 W/m 0,5 C 2,8 C 3,5 km/h (1 Bft) 97,86 %
04.03.2017 05:00 1,5 C 89 % 1002,4 hPa 0,0 l/m 1,8 km/h (1 Bft) SO 0,00 h 0,000 mm 0,0 UV-I 0 W/m -0,1 C 1,5 C 3,4 km/h (1 Bft) 96,30 %
04.03.2017 06:00 0,9 C 91 % 1002,1 hPa 0,0 l/m 2,1 km/h (1 Bft) NO 0,10 h 0,000 mm 0,0 UV-I 10 W/m -0,4 C 0,9 C 4,1 km/h (1 Bft) 97,46 %
04.03.2017 07:00 2,4 C 89 % 1002,1 hPa 0,0 l/m 5,4 km/h (1 Bft) O-NO 0,40 h 0,000 mm 0,0 UV-I 73 W/m 0,7 C 1,7 C 8,6 km/h (2 Bft) 96,90 %
04.03.2017 08:00 4,4 C 87 % 1001,8 hPa 0,0 l/m 11,1 km/h (2 Bft) O-NO 0,90 h 0,026 mm 0,5 UV-I 256 W/m 2,4 C 0,7 C 15,9 km/h (3 Bft) 97,31 %
04.03.2017 09:00 6,5 C 82 % 1001,2 hPa 0,0 l/m 11,7 km/h (2 Bft) NO 1,02 h 0,127 mm 0,9 UV-I 420 W/m 3,6 C 2,6 C 16,8 km/h (3 Bft) 96,29 %
04.03.2017 10:00 9,1 C 77 % 1000,1 hPa 0,0 l/m 13,7 km/h (3 Bft) O-NO 1,00 h 0,203 mm 1,4 UV-I 534 W/m 5,3 C 4,7 C 19,5 km/h (3 Bft) 96,77 %
04.03.2017 11:00 11,3 C 73 % 999,2 hPa 0,0 l/m 14,2 km/h (3 Bft) O-NO 0,98 h 0,279 mm 1,6 UV-I 519 W/m 6,6 C 7,1 C 19,3 km/h (3 Bft) 98,64 %
04.03.2017 12:00 13,7 C 67 % 997,9 hPa 0,0 l/m 13,3 km/h (3 Bft) NO 1,02 h 0,280 mm 1,8 UV-I 539 W/m 7,6 C 10,2 C 18,7 km/h (3 Bft) 96,93 %
04.03.2017 13:00 16,3 C 57 % 996,9 hPa 0,0 l/m 11,3 km/h (2 Bft) NO 0,98 h 0,330 mm 1,6 UV-I 560 W/m 7,8 C 14,0 C 16,4 km/h (3 Bft) 99,05 %
04.03.2017 14:00 16,8 C 56 % 995,9 hPa 0,0 l/m 7,9 km/h (2 Bft) O-NO 0,33 h 0,356 mm 0,9 UV-I 203 W/m 7,9 C 15,9 C 11,5 km/h (2 Bft) 97,96 %
04.03.2017 15:00 16,1 C 47 % 995,3 hPa 0,0 l/m 6,3 km/h (2 Bft) O-SO 0,00 h 0,152 mm 0,0 UV-I 106 W/m 4,6 C 15,6 C 10,8 km/h (2 Bft) 98,50 %
04.03.2017 16:00 15,7 C 39 % 994,9 hPa 0,0 l/m 10,9 km/h (2 Bft) O 0,00 h 0,102 mm 0,0 UV-I 55 W/m 1,8 C 13,5 C 15,7 km/h (3 Bft) 98,68 %
04.03.2017 17:00 14,7 C 44 % 994,8 hPa 0,0 l/m 12,8 km/h (3 Bft) O 0,13 h 0,127 mm 0,0 UV-I 20 W/m 2,6 C 11,7 C 19,1 km/h (3 Bft) 96,82 %
04.03.2017 18:00 13,7 C 49 % 995,0 hPa 0,0 l/m 12,2 km/h (2 Bft) O-NO 0,00 h 0,101 mm 0,0 UV-I 5 W/m 3,3 C 10,8 C 17,9 km/h (3 Bft) 97,19 %
04.03.2017 19:00 12,8 C 53 % 995,4 hPa 0,0 l/m 11,5 km/h (2 Bft) O-SO 0,00 h 0,076 mm 0,0 UV-I 0 W/m 3,4 C 10,1 C 16,7 km/h (3 Bft) 98,59 %
04.03.2017 20:00 11,9 C 56 % 995,7 hPa 0,0 l/m 7,0 km/h (2 Bft) SO 0,00 h 0,077 mm 0,0 UV-I 0 W/m 3,5 C 11,0 C 11,0 km/h (2 Bft) 98,09 %
04.03.2017 21:00 10,9 C 60 % 996,2 hPa 0,0 l/m 4,0 km/h (1 Bft) S 0,00 h 0,050 mm 0,0 UV-I 0 W/m 3,4 C 10,7 C 8,1 km/h (2 Bft) 99,37 %
04.03.2017 22:00 12,7 C 49 % 996,8 hPa 0,0 l/m 7,0 km/h (2 Bft) SO 0,00 h 0,026 mm 0,0 UV-I 0 W/m 2,1 C 12,0 C 11,9 km/h (2 Bft) 96,52 %
04.03.2017 23:00 11,9 C 51 % 997,2 hPa 0,0 l/m 6,8 km/h (2 Bft) O 0,00 h 0,051 mm 0,0 UV-I 0 W/m 2,0 C 10,9 C 10,8 km/h (2 Bft) 97,44 %
05.03.2017 00:00 9,6 C 61 % 998,3 hPa 0,0 l/m 2,9 km/h (1 Bft) S 0,00 h 0,000 mm 0,0 UV-I 0 W/m 2,4 C 9,5 C 5,9 km/h (2 Bft) 95,20 %
05.03.2017 01:00 9,7 C 66 % 1000,6 hPa 0,0 l/m 18,7 km/h (3 Bft) W 0,00 h 0,025 mm 0,0 UV-I 0 W/m 3,7 C 3,8 C 29,8 km/h (5 Bft) 99,45 %
05.03.2017 02:00 9,5 C 67 % 1002,6 hPa 0,0 l/m 18,7 km/h (3 Bft) W-SW 0,00 h 0,077 mm 0,0 UV-I 0 W/m 3,7 C 3,2 C 28,4 km/h (4 Bft) 97,59 %
05.03.2017 03:00 8,6 C 68 % 1003,7 hPa 0,0 l/m 17,3 km/h (3 Bft) W-SW 0,00 h 0,076 mm 0,0 UV-I 0 W/m 2,9 C 2,5 C 25,9 km/h (4 Bft) 97,52 %
05.03.2017 04:00 7,9 C 69 % 1004,4 hPa 0,0 l/m 10,0 km/h (2 Bft) SW 0,00 h 0,051 mm 0,0 UV-I 0 W/m 2,5 C 5,4 C 15,0 km/h (3 Bft) 97,10 %
05.03.2017 05:00 7,4 C 71 % 1004,9 hPa 0,0 l/m 11,1 km/h (2 Bft) SW 0,00 h 0,025 mm 0,0 UV-I 0 W/m 2,5 C 4,1 C 16,6 km/h (3 Bft) 99,38 %
05.03.2017 06:00 7,2 C 70 % 1005,5 hPa 0,0 l/m 9,4 km/h (2 Bft) W-SW 0,17 h 0,025 mm 0,0 UV-I 13 W/m 2,2 C 5,0 C 14,4 km/h (3 Bft) 98,80 %
05.03.2017 07:00 7,1 C 70 % 1006,3 hPa 0,0 l/m 5,6 km/h (1 Bft) SW 0,60 h 0,026 mm 0,0 UV-I 88 W/m 2,0 C 7,0 C 8,3 km/h (2 Bft) 98,79 %
05.03.2017 08:00 7,7 C 69 % 1007,0 hPa 0,0 l/m 5,1 km/h (1 Bft) W-SW 0,00 h 0,051 mm 0,0 UV-I 123 W/m 2,4 C 7,4 C 8,0 km/h (2 Bft) 96,72 %
05.03.2017 09:00 8,5 C 66 % 1007,2 hPa 0,0 l/m 7,4 km/h (2 Bft) W-SW 0,00 h 0,076 mm 0,2 UV-I 142 W/m 2,5 C 7,6 C 12,0 km/h (2 Bft) 98,28 %
05.03.2017 10:00 8,8 C 65 % 1007,3 hPa 0,0 l/m 7,5 km/h (2 Bft) W-SW 0,00 h 0,101 mm 0,6 UV-I 151 W/m 2,6 C 7,8 C 12,4 km/h (3 Bft) 98,86 %
05.03.2017 11:00 8,6 C 69 % 1007,0 hPa 0,0 l/m 11,9 km/h (2 Bft) SW 0,13 h 0,102 mm 0,9 UV-I 233 W/m 3,2 C 5,0 C 19,1 km/h (3 Bft) 99,02 %
05.03.2017 12:00 7,8 C 74 % 1006,8 hPa 0,0 l/m 14,5 km/h (3 Bft) SW 0,00 h 0,152 mm 0,5 UV-I 124 W/m 3,4 C 2,8 C 22,6 km/h (4 Bft) 97,13 %
05.03.2017 13:00 7,2 C 77 % 1006,1 hPa 0,0 l/m 13,5 km/h (3 Bft) SW 0,00 h 0,102 mm 0,5 UV-I 124 W/m 3,4 C 2,6 C 20,7 km/h (4 Bft) 97,64 %
05.03.2017 14:00 6,7 C 79 % 1005,9 hPa 0,0 l/m 12,9 km/h (3 Bft) SW 0,00 h 0,076 mm 0,0 UV-I 73 W/m 3,3 C 2,3 C 19,6 km/h (3 Bft) 98,34 %
05.03.2017 15:00 6,6 C 79 % 1005,1 hPa 0,0 l/m 4,4 km/h (1 Bft) S-SW 0,00 h 0,051 mm 0,0 UV-I 76 W/m 3,2 C 6,4 C 7,8 km/h (2 Bft) 99,52 %
05.03.2017 16:00 6,8 C 78 % 1004,2 hPa 0,0 l/m 4,2 km/h (1 Bft) SO 0,00 h 0,051 mm 0,0 UV-I 65 W/m 3,1 C 6,7 C 7,0 km/h (2 Bft) 96,49 %
05.03.2017 17:00 6,6 C 79 % 1003,5 hPa 0,0 l/m 3,4 km/h (1 Bft) O-SO 0,57 h 0,051 mm 0,0 UV-I 51 W/m 3,1 C 6,6 C 5,3 km/h (1 Bft) 93,98 %
05.03.2017 18:00 5,0 C 82 % 1003,6 hPa 0,0 l/m 1,5 km/h (1 Bft) O 0,00 h 0,025 mm 0,0 UV-I 4 W/m 2,1 C 5,0 C 2,6 km/h (1 Bft) 96,21 %
05.03.2017 19:00 3,7 C 87 % 1003,5 hPa 0,0 l/m 2,9 km/h (1 Bft) NO 0,00 h 0,000 mm 0,0 UV-I 0 W/m 1,8 C 3,7 C 4,2 km/h (1 Bft) 95,86 %
05.03.2017 20:00 2,4 C 89 % 1003,2 hPa 0,0 l/m 2,4 km/h (1 Bft) O-SO 0,00 h 0,000 mm 0,0 UV-I 0 W/m 0,8 C 2,4 C 3,9 km/h (1 Bft) 96,48 %
05.03.2017 21:00 1,4 C 93 % 1003,1 hPa 0,0 l/m 2,0 km/h (1 Bft) O-SO 0,00 h 0,000 mm 0,0 UV-I 0 W/m 0,4 C 1,4 C 3,4 km/h (1 Bft) 94,29 %
05.03.2017 22:00 0,9 C 93 % 1002,9 hPa 0,0 l/m 2,8 km/h (1 Bft) S-SW 0,00 h 0,000 mm 0,0 UV-I 0 W/m -0,0 C 0,9 C 4,2 km/h (1 Bft) 98,94 %
05.03.2017 23:00 0,9 C 94 % 1002,9 hPa 0,0 l/m 3,5 km/h (1 Bft) S-SW 0,00 h 0,000 mm 0,0 UV-I 0 W/m 0,0 C 0,7 C 5,4 km/h (1 Bft) 96,51 %
Min-Datum _ 27.02.17 04.03.17 04.03.17 - 27.02.17 - - - - - 03.03.17 01.03.17 27.02.17 05.03.17
_ Min-Zeit 06:38 16:12 17:36 - 00:02 - - - - - 03:38 03:28 00:02 00:02
Minimum _ -1,5 C 36 % 994,6 hPa - 0,0 km/h (0 Bft) - - - - - -2,7 C -9,3 C 0,0 km/h (0 Bft) 9,09 %
Max-Datum _ 04.03.17 27.02.17 02.03.17 02.03.17 01.03.17 - 27.02.17 04.03.17 27.02.17 01.03.17 04.03.17 04.03.17 01.03.17 27.02.17
_ Max-Zeit 14:08 07:22 23:58 03:06 03:20 - 12:05 14:02 12:40 12:54 13:40 14:22 03:20 00:00
Maximum _ 17,6 C 97 % 1019,4 hPa 2,4 l/m 35,5 km/h
W-SW (5 Bft)
- 0,05 h 0,356 mm 2,2 UV-I 802 W/m 9,2 C 17,3 C 54,7 km/h
W-SW (7 Bft)
100,00 %
Durchschnitt _ 6,1 C 75 % 1006,5 hPa #14,4 l/m 8,9 km/h (2 Bft) O-NO #36:09 h #12,039 mm 1,0 UV-I 201 W/m 1,7 C 3,6 C 13,7 km/h (3 Bft) 96,89 %